This is the latest recevied weather packets stored in our database for station/object JH4GLG-13. If no packets are shown the sender has not sent any weather packets the latest 10 day(s).
| Time | Temp. | Humidity | Pressure | Rain* | Wind** | Luminosity | Snow |
|---|---|---|---|---|---|---|---|
| 1777849873 | 17.22° C | 79% | 1006.5 hPa | 0 mm | - | - | - |
| 1777848974 | 17.22° C | 79% | 1006.4 hPa | 0 mm | - | - | - |
| 1777848073 | 17.22° C | 79% | 1006.1 hPa | 0 mm | - | - | - |
| 1777847174 | 17.78° C | 77% | 1005.9 hPa | 0 mm | - | - | - |
| 1777846272 | 17.78° C | 79% | 1005.8 hPa | 0 mm | - | - | - |
| 1777845373 | 17.78° C | 84% | 1005.6 hPa | 0 mm | - | - | - |
| 1777844472 | 17.22° C | 88% | 1005.5 hPa | 0 mm | - | - | - |
| 1777843574 | 16.11° C | 92% | 1005 hPa | 0 mm | - | - | - |
| 1777842672 | 16.11° C | 93% | 1004.9 hPa | 0 mm | - | - | - |
| 1777841773 | 15.56° C | 96% | 1004.7 hPa | 0 mm | - | - | - |
| 1777840872 | 15.56° C | 97% | 1004.3 hPa | 0 mm | - | - | - |
| 1777839973 | 15.56° C | 96% | 1004.1 hPa | 0 mm | - | - | - |
| 1777839071 | 15.56° C | 96% | 1004.2 hPa | 0 mm | - | - | - |
| 1777838173 | 15.56° C | 96% | 1004.3 hPa | 0 mm | - | - | - |
| 1777837272 | 15.56° C | 95% | 1003.9 hPa | 0 mm | - | - | - |
| 1777836372 | 15.56° C | 94% | 1003.5 hPa | 0 mm | - | - | - |
| 1777835471 | 15.56° C | 93% | 1003.4 hPa | 0 mm | - | - | - |
| 1777834573 | 15.56° C | 93% | 1003.4 hPa | 0 mm | - | - | - |
| 1777833671 | 16.11° C | 93% | 1003.3 hPa | 0 mm | - | - | - |
| 1777832772 | 16.11° C | 92% | 1002.9 hPa | 0 mm | - | - | - |
| 1777831871 | 16.11° C | 92% | 1002.8 hPa | 0 mm | - | - | - |
| 1777830971 | 16.11° C | 95% | 1002.6 hPa | 0 mm | - | - | - |
| 1777830070 | 16.67° C | 97% | 1002.6 hPa | 0 mm | - | - | - |
| 1777829172 | 16.67° C | 98% | 1002.3 hPa | 0 mm | - | - | - |
| 1777828270 | 16.67° C | 99% | 1002.2 hPa | 0 mm | - | - | - |
* Rain latest hour (hover to see other rain measurements)
** Current wind speed in m/s (hover to see current wind gust speed)